sensor_id;sensor_type;location;lat;lon;timestamp;P1;durP1;ratioP1;P2;durP2;ratioP2
46815;SDS011;32787;53.316;8.670;2022-10-16T00:00:56;10.98;;;3.90;;
46815;SDS011;32787;53.316;8.670;2022-10-16T00:03:21;8.32;;;4.00;;
46815;SDS011;32787;53.316;8.670;2022-10-16T00:05:47;9.70;;;3.83;;
46815;SDS011;32787;53.316;8.670;2022-10-16T00:08:13;12.63;;;3.67;;
46815;SDS011;32787;53.316;8.670;2022-10-16T00:10:39;9.00;;;3.67;;
46815;SDS011;32787;53.316;8.670;2022-10-16T00:13:04;7.72;;;3.35;;
46815;SDS011;32787;53.316;8.670;2022-10-16T00:15:32;10.82;;;3.70;;
46815;SDS011;32787;53.316;8.670;2022-10-16T00:18:01;9.05;;;3.58;;
46815;SDS011;32787;53.316;8.670;2022-10-16T00:20:27;8.85;;;3.17;;
46815;SDS011;32787;53.316;8.670;2022-10-16T00:22:53;7.57;;;2.83;;
46815;SDS011;32787;53.316;8.670;2022-10-16T00:25:18;9.70;;;3.08;;
46815;SDS011;32787;53.316;8.670;2022-10-16T00:27:44;10.10;;;2.90;;
46815;SDS011;32787;53.316;8.670;2022-10-16T00:30:09;8.68;;;3.22;;
46815;SDS011;32787;53.316;8.670;2022-10-16T00:32:35;6.68;;;2.92;;
46815;SDS011;32787;53.316;8.670;2022-10-16T00:35:01;7.72;;;2.75;;
46815;SDS011;32787;53.316;8.670;2022-10-16T00:37:28;7.72;;;2.60;;
46815;SDS011;32787;53.316;8.670;2022-10-16T00:39:54;11.68;;;3.30;;
46815;SDS011;32787;53.316;8.670;2022-10-16T00:42:19;9.65;;;2.75;;
46815;SDS011;32787;53.316;8.670;2022-10-16T00:44:55;13.77;;;2.60;;
46815;SDS011;32787;53.316;8.670;2022-10-16T00:47:24;8.07;;;2.85;;
46815;SDS011;32787;53.316;8.670;2022-10-16T00:50:08;7.40;;;2.63;;
46815;SDS011;32787;53.316;8.670;2022-10-16T00:52:44;8.68;;;2.50;;
46815;SDS011;32787;53.316;8.670;2022-10-16T00:55:11;8.98;;;3.03;;
46815;SDS011;32787;53.316;8.670;2022-10-16T00:57:38;10.43;;;2.72;;
46815;SDS011;32787;53.316;8.670;2022-10-16T01:00:05;9.38;;;2.58;;
46815;SDS011;32787;53.316;8.670;2022-10-16T01:02:33;7.03;;;2.33;;
46815;SDS011;32787;53.316;8.670;2022-10-16T01:04:58;8.27;;;2.38;;
46815;SDS011;32787;53.316;8.670;2022-10-16T01:13:03;6.78;;;2.22;;
46815;SDS011;32787;53.316;8.670;2022-10-16T01:21:24;8.32;;;2.70;;
46815;SDS011;32787;53.316;8.670;2022-10-16T01:29:01;8.77;;;2.05;;
46815;SDS011;32787;53.316;8.670;2022-10-16T01:31:41;7.88;;;2.20;;
46815;SDS011;32787;53.316;8.670;2022-10-16T01:34:16;8.07;;;1.92;;
46815;SDS011;32787;53.316;8.670;2022-10-16T01:36:47;9.40;;;2.30;;
46815;SDS011;32787;53.316;8.670;2022-10-16T01:39:18;7.68;;;1.90;;
46815;SDS011;32787;53.316;8.670;2022-10-16T01:41:54;7.20;;;1.98;;
46815;SDS011;32787;53.316;8.670;2022-10-16T01:44:26;8.45;;;2.42;;
46815;SDS011;32787;53.316;8.670;2022-10-16T01:46:56;9.45;;;2.20;;
46815;SDS011;32787;53.316;8.670;2022-10-16T01:49:23;7.80;;;1.90;;
46815;SDS011;32787;53.316;8.670;2022-10-16T01:51:52;8.90;;;2.15;;
46815;SDS011;32787;53.316;8.670;2022-10-16T01:56:48;8.30;;;2.42;;
46815;SDS011;32787;53.316;8.670;2022-10-16T01:59:16;5.38;;;2.05;;
46815;SDS011;32787;53.316;8.670;2022-10-16T02:01:53;7.22;;;2.33;;
46815;SDS011;32787;53.316;8.670;2022-10-16T02:04:24;8.98;;;2.25;;
46815;SDS011;32787;53.316;8.670;2022-10-16T02:06:54;6.70;;;2.38;;
46815;SDS011;32787;53.316;8.670;2022-10-16T02:09:20;6.82;;;2.13;;
46815;SDS011;32787;53.316;8.670;2022-10-16T02:11:46;6.43;;;1.90;;
46815;SDS011;32787;53.316;8.670;2022-10-16T02:14:14;9.35;;;2.33;;
46815;SDS011;32787;53.316;8.670;2022-10-16T02:16:43;8.10;;;2.17;;
46815;SDS011;32787;53.316;8.670;2022-10-16T02:19:11;8.23;;;2.38;;
46815;SDS011;32787;53.316;8.670;2022-10-16T02:29:34;8.85;;;2.65;;
46815;SDS011;32787;53.316;8.670;2022-10-16T02:32:05;5.72;;;1.80;;
46815;SDS011;32787;53.316;8.670;2022-10-16T02:37:01;11.38;;;2.10;;
46815;SDS011;32787;53.316;8.670;2022-10-16T02:39:29;6.95;;;2.20;;
46815;SDS011;32787;53.316;8.670;2022-10-16T02:41:55;8.93;;;2.58;;
46815;SDS011;32787;53.316;8.670;2022-10-16T02:44:21;6.15;;;2.05;;
46815;SDS011;32787;53.316;8.670;2022-10-16T02:46:46;8.25;;;2.05;;
46815;SDS011;32787;53.316;8.670;2022-10-16T02:49:12;6.75;;;1.73;;
46815;SDS011;32787;53.316;8.670;2022-10-16T02:51:37;10.68;;;2.22;;
46815;SDS011;32787;53.316;8.670;2022-10-16T02:54:03;7.03;;;2.15;;
46815;SDS011;32787;53.316;8.670;2022-10-16T02:56:29;8.20;;;2.22;;
46815;SDS011;32787;53.316;8.670;2022-10-16T02:58:55;5.50;;;1.77;;
46815;SDS011;32787;53.316;8.670;2022-10-16T03:01:21;9.85;;;1.95;;
46815;SDS011;32787;53.316;8.670;2022-10-16T03:03:47;7.65;;;1.90;;
46815;SDS011;32787;53.316;8.670;2022-10-16T03:06:13;6.72;;;1.98;;
46815;SDS011;32787;53.316;8.670;2022-10-16T03:08:38;6.10;;;1.65;;
46815;SDS011;32787;53.316;8.670;2022-10-16T03:11:04;7.70;;;1.73;;
46815;SDS011;32787;53.316;8.670;2022-10-16T03:13:30;7.93;;;2.05;;
46815;SDS011;32787;53.316;8.670;2022-10-16T03:15:55;6.38;;;1.90;;
46815;SDS011;32787;53.316;8.670;2022-10-16T03:18:21;7.53;;;2.10;;
46815;SDS011;32787;53.316;8.670;2022-10-16T03:20:46;7.05;;;1.52;;
46815;SDS011;32787;53.316;8.670;2022-10-16T03:23:12;9.57;;;2.25;;
46815;SDS011;32787;53.316;8.670;2022-10-16T03:25:37;5.47;;;1.70;;
46815;SDS011;32787;53.316;8.670;2022-10-16T03:28:03;5.68;;;1.75;;
46815;SDS011;32787;53.316;8.670;2022-10-16T03:30:29;6.63;;;1.70;;
46815;SDS011;32787;53.316;8.670;2022-10-16T03:32:55;7.75;;;1.80;;
46815;SDS011;32787;53.316;8.670;2022-10-16T03:35:21;8.77;;;2.20;;
46815;SDS011;32787;53.316;8.670;2022-10-16T03:37:48;5.20;;;1.92;;
46815;SDS011;32787;53.316;8.670;2022-10-16T03:40:14;7.65;;;1.88;;
46815;SDS011;32787;53.316;8.670;2022-10-16T03:42:41;5.60;;;1.73;;
46815;SDS011;32787;53.316;8.670;2022-10-16T03:45:07;6.05;;;2.10;;
46815;SDS011;32787;53.316;8.670;2022-10-16T03:47:33;8.55;;;1.90;;
46815;SDS011;32787;53.316;8.670;2022-10-16T03:49:59;12.52;;;2.00;;
46815;SDS011;32787;53.316;8.670;2022-10-16T03:52:25;10.15;;;2.25;;
46815;SDS011;32787;53.316;8.670;2022-10-16T03:54:51;12.20;;;2.38;;
46815;SDS011;32787;53.316;8.670;2022-10-16T03:57:16;8.05;;;2.17;;
46815;SDS011;32787;53.316;8.670;2022-10-16T03:59:42;11.45;;;2.05;;
46815;SDS011;32787;53.316;8.670;2022-10-16T04:02:08;13.20;;;2.78;;
46815;SDS011;32787;53.316;8.670;2022-10-16T04:04:34;8.00;;;2.42;;
46815;SDS011;32787;53.316;8.670;2022-10-16T04:06:59;8.90;;;2.47;;
46815;SDS011;32787;53.316;8.670;2022-10-16T04:09:25;8.80;;;2.28;;
46815;SDS011;32787;53.316;8.670;2022-10-16T04:11:51;6.97;;;2.15;;
46815;SDS011;32787;53.316;8.670;2022-10-16T04:14:16;14.15;;;2.30;;
46815;SDS011;32787;53.316;8.670;2022-10-16T04:16:42;7.72;;;2.63;;
46815;SDS011;32787;53.316;8.670;2022-10-16T04:19:08;9.50;;;3.30;;
46815;SDS011;32787;53.316;8.670;2022-10-16T04:21:34;9.52;;;2.85;;
46815;SDS011;32787;53.316;8.670;2022-10-16T04:24:00;9.38;;;2.40;;
46815;SDS011;32787;53.316;8.670;2022-10-16T04:26:25;6.05;;;2.78;;
46815;SDS011;32787;53.316;8.670;2022-10-16T04:28:51;8.55;;;3.05;;
46815;SDS011;32787;53.316;8.670;2022-10-16T04:31:17;8.00;;;2.58;;
46815;SDS011;32787;53.316;8.670;2022-10-16T04:33:43;10.82;;;2.80;;
46815;SDS011;32787;53.316;8.670;2022-10-16T04:36:08;8.18;;;2.97;;
46815;SDS011;32787;53.316;8.670;2022-10-16T04:38:34;8.82;;;3.05;;
46815;SDS011;32787;53.316;8.670;2022-10-16T04:41:02;9.13;;;3.05;;
46815;SDS011;32787;53.316;8.670;2022-10-16T04:43:28;8.63;;;3.47;;
46815;SDS011;32787;53.316;8.670;2022-10-16T04:45:54;9.05;;;3.33;;
46815;SDS011;32787;53.316;8.670;2022-10-16T04:48:21;7.30;;;3.40;;
46815;SDS011;32787;53.316;8.670;2022-10-16T04:50:46;7.53;;;3.58;;
46815;SDS011;32787;53.316;8.670;2022-10-16T04:53:12;8.45;;;3.50;;
46815;SDS011;32787;53.316;8.670;2022-10-16T04:55:38;8.60;;;3.47;;
46815;SDS011;32787;53.316;8.670;2022-10-16T04:58:04;9.80;;;3.55;;
46815;SDS011;32787;53.316;8.670;2022-10-16T05:00:29;9.85;;;3.53;;
46815;SDS011;32787;53.316;8.670;2022-10-16T05:02:55;9.82;;;3.67;;
46815;SDS011;32787;53.316;8.670;2022-10-16T05:05:22;8.35;;;3.58;;
46815;SDS011;32787;53.316;8.670;2022-10-16T05:07:48;9.77;;;3.95;;
46815;SDS011;32787;53.316;8.670;2022-10-16T05:10:14;8.00;;;3.58;;
46815;SDS011;32787;53.316;8.670;2022-10-16T05:12:40;9.13;;;3.92;;
46815;SDS011;32787;53.316;8.670;2022-10-16T05:15:06;11.20;;;4.70;;
46815;SDS011;32787;53.316;8.670;2022-10-16T05:17:32;9.57;;;4.10;;
46815;SDS011;32787;53.316;8.670;2022-10-16T05:19:58;11.27;;;4.28;;
46815;SDS011;32787;53.316;8.670;2022-10-16T05:22:23;12.57;;;5.07;;
46815;SDS011;32787;53.316;8.670;2022-10-16T05:24:49;9.35;;;4.57;;
46815;SDS011;32787;53.316;8.670;2022-10-16T05:27:14;8.75;;;4.05;;
46815;SDS011;32787;53.316;8.670;2022-10-16T05:29:47;9.00;;;5.20;;
46815;SDS011;32787;53.316;8.670;2022-10-16T05:32:14;11.05;;;5.18;;
46815;SDS011;32787;53.316;8.670;2022-10-16T05:34:40;10.18;;;4.72;;
46815;SDS011;32787;53.316;8.670;2022-10-16T05:37:06;12.27;;;5.13;;
46815;SDS011;32787;53.316;8.670;2022-10-16T05:39:31;11.10;;;5.47;;
46815;SDS011;32787;53.316;8.670;2022-10-16T05:41:57;10.00;;;4.60;;
46815;SDS011;32787;53.316;8.670;2022-10-16T05:44:22;14.55;;;5.45;;
46815;SDS011;32787;53.316;8.670;2022-10-16T05:46:48;11.75;;;5.50;;
46815;SDS011;32787;53.316;8.670;2022-10-16T05:49:14;11.50;;;5.43;;
46815;SDS011;32787;53.316;8.670;2022-10-16T05:51:40;12.85;;;5.40;;
46815;SDS011;32787;53.316;8.670;2022-10-16T05:54:06;12.65;;;5.30;;
46815;SDS011;32787;53.316;8.670;2022-10-16T05:56:31;11.73;;;5.82;;
46815;SDS011;32787;53.316;8.670;2022-10-16T05:58:57;14.00;;;5.82;;
46815;SDS011;32787;53.316;8.670;2022-10-16T06:01:23;14.50;;;6.10;;
46815;SDS011;32787;53.316;8.670;2022-10-16T06:03:49;15.30;;;6.68;;
46815;SDS011;32787;53.316;8.670;2022-10-16T06:06:17;12.63;;;6.25;;
46815;SDS011;32787;53.316;8.670;2022-10-16T06:08:45;11.33;;;6.07;;
46815;SDS011;32787;53.316;8.670;2022-10-16T06:11:12;14.50;;;6.13;;
46815;SDS011;32787;53.316;8.670;2022-10-16T06:13:40;13.35;;;6.38;;
46815;SDS011;32787;53.316;8.670;2022-10-16T06:16:07;11.18;;;6.30;;
46815;SDS011;32787;53.316;8.670;2022-10-16T06:18:35;14.18;;;6.60;;
46815;SDS011;32787;53.316;8.670;2022-10-16T06:21:06;12.45;;;7.45;;
46815;SDS011;32787;53.316;8.670;2022-10-16T06:23:50;14.10;;;7.55;;
46815;SDS011;32787;53.316;8.670;2022-10-16T06:26:17;12.57;;;7.47;;
46815;SDS011;32787;53.316;8.670;2022-10-16T06:28:45;14.93;;;8.50;;
46815;SDS011;32787;53.316;8.670;2022-10-16T06:31:11;17.30;;;9.00;;
46815;SDS011;32787;53.316;8.670;2022-10-16T06:33:38;15.35;;;7.88;;
46815;SDS011;32787;53.316;8.670;2022-10-16T06:36:08;12.30;;;7.43;;
46815;SDS011;32787;53.316;8.670;2022-10-16T06:38:35;14.85;;;8.30;;
46815;SDS011;32787;53.316;8.670;2022-10-16T06:41:02;12.90;;;7.57;;
46815;SDS011;32787;53.316;8.670;2022-10-16T06:43:30;13.05;;;7.22;;
46815;SDS011;32787;53.316;8.670;2022-10-16T06:45:57;14.30;;;6.88;;
46815;SDS011;32787;53.316;8.670;2022-10-16T06:48:24;13.07;;;6.97;;
46815;SDS011;32787;53.316;8.670;2022-10-16T06:53:27;14.18;;;7.35;;
46815;SDS011;32787;53.316;8.670;2022-10-16T06:55:55;15.07;;;7.53;;
46815;SDS011;32787;53.316;8.670;2022-10-16T06:58:21;13.60;;;7.30;;
46815;SDS011;32787;53.316;8.670;2022-10-16T07:00:47;15.13;;;6.97;;
46815;SDS011;32787;53.316;8.670;2022-10-16T07:03:13;13.48;;;6.85;;
46815;SDS011;32787;53.316;8.670;2022-10-16T07:05:39;12.98;;;7.03;;
46815;SDS011;32787;53.316;8.670;2022-10-16T07:08:05;15.75;;;7.47;;
46815;SDS011;32787;53.316;8.670;2022-10-16T07:10:32;15.93;;;7.07;;
46815;SDS011;32787;53.316;8.670;2022-10-16T07:12:57;13.25;;;6.75;;
46815;SDS011;32787;53.316;8.670;2022-10-16T07:15:24;14.60;;;7.00;;
46815;SDS011;32787;53.316;8.670;2022-10-16T07:17:50;14.85;;;7.22;;
46815;SDS011;32787;53.316;8.670;2022-10-16T07:20:16;15.65;;;7.43;;
46815;SDS011;32787;53.316;8.670;2022-10-16T07:22:42;13.52;;;6.80;;
46815;SDS011;32787;53.316;8.670;2022-10-16T07:25:08;14.23;;;7.28;;
46815;SDS011;32787;53.316;8.670;2022-10-16T07:27:33;12.15;;;7.15;;
46815;SDS011;32787;53.316;8.670;2022-10-16T07:29:59;12.93;;;6.30;;
46815;SDS011;32787;53.316;8.670;2022-10-16T07:32:25;9.60;;;6.57;;
46815;SDS011;32787;53.316;8.670;2022-10-16T07:34:51;13.13;;;6.15;;
46815;SDS011;32787;53.316;8.670;2022-10-16T07:37:17;13.65;;;6.55;;
46815;SDS011;32787;53.316;8.670;2022-10-16T07:39:43;11.00;;;6.47;;
46815;SDS011;32787;53.316;8.670;2022-10-16T07:42:09;13.32;;;6.30;;
46815;SDS011;32787;53.316;8.670;2022-10-16T07:44:35;11.25;;;6.53;;
46815;SDS011;32787;53.316;8.670;2022-10-16T07:47:00;13.02;;;6.85;;
46815;SDS011;32787;53.316;8.670;2022-10-16T07:49:26;13.82;;;5.72;;
46815;SDS011;32787;53.316;8.670;2022-10-16T07:51:52;11.38;;;6.00;;
46815;SDS011;32787;53.316;8.670;2022-10-16T07:54:18;10.90;;;6.53;;
46815;SDS011;32787;53.316;8.670;2022-10-16T07:56:43;13.15;;;6.70;;
46815;SDS011;32787;53.316;8.670;2022-10-16T07:59:09;11.63;;;5.47;;
46815;SDS011;32787;53.316;8.670;2022-10-16T08:01:35;13.77;;;6.22;;
46815;SDS011;32787;53.316;8.670;2022-10-16T08:04:00;10.32;;;6.18;;
46815;SDS011;32787;53.316;8.670;2022-10-16T08:06:26;9.75;;;5.90;;
46815;SDS011;32787;53.316;8.670;2022-10-16T08:08:51;11.20;;;6.32;;
46815;SDS011;32787;53.316;8.670;2022-10-16T08:11:17;10.43;;;5.90;;
46815;SDS011;32787;53.316;8.670;2022-10-16T08:13:43;8.82;;;5.03;;
46815;SDS011;32787;53.316;8.670;2022-10-16T08:16:09;10.23;;;5.50;;
46815;SDS011;32787;53.316;8.670;2022-10-16T08:18:35;16.08;;;5.75;;
46815;SDS011;32787;53.316;8.670;2022-10-16T08:23:31;13.43;;;5.38;;
46815;SDS011;32787;53.316;8.670;2022-10-16T08:26:01;12.63;;;5.63;;
46815;SDS011;32787;53.316;8.670;2022-10-16T08:28:30;10.23;;;5.53;;
46815;SDS011;32787;53.316;8.670;2022-10-16T08:30:56;14.50;;;5.60;;
46815;SDS011;32787;53.316;8.670;2022-10-16T08:33:22;13.90;;;5.43;;
46815;SDS011;32787;53.316;8.670;2022-10-16T08:35:51;12.98;;;5.50;;
46815;SDS011;32787;53.316;8.670;2022-10-16T08:38:18;11.05;;;5.03;;
46815;SDS011;32787;53.316;8.670;2022-10-16T08:40:44;9.05;;;4.80;;
46815;SDS011;32787;53.316;8.670;2022-10-16T08:43:46;7.18;;;4.30;;
46815;SDS011;32787;53.316;8.670;2022-10-16T08:48:54;9.20;;;4.20;;
46815;SDS011;32787;53.316;8.670;2022-10-16T08:51:25;8.95;;;4.07;;
46815;SDS011;32787;53.316;8.670;2022-10-16T08:54:03;10.02;;;3.92;;
46815;SDS011;32787;53.316;8.670;2022-10-16T08:56:30;7.93;;;3.38;;
46815;SDS011;32787;53.316;8.670;2022-10-16T08:58:58;9.15;;;3.80;;
46815;SDS011;32787;53.316;8.670;2022-10-16T09:01:25;9.35;;;3.03;;
46815;SDS011;32787;53.316;8.670;2022-10-16T09:09:26;9.07;;;2.55;;
46815;SDS011;32787;53.316;8.670;2022-10-16T09:17:49;9.63;;;2.47;;
46815;SDS011;32787;53.316;8.670;2022-10-16T09:23:12;6.25;;;2.08;;
46815;SDS011;32787;53.316;8.670;2022-10-16T09:25:38;6.13;;;2.05;;
46815;SDS011;32787;53.316;8.670;2022-10-16T09:28:07;7.60;;;2.50;;
46815;SDS011;32787;53.316;8.670;2022-10-16T09:30:34;7.00;;;1.67;;
46815;SDS011;32787;53.316;8.670;2022-10-16T09:33:00;8.27;;;1.90;;
46815;SDS011;32787;53.316;8.670;2022-10-16T09:35:48;6.43;;;1.50;;
46815;SDS011;32787;53.316;8.670;2022-10-16T09:38:30;7.40;;;1.60;;
46815;SDS011;32787;53.316;8.670;2022-10-16T09:40:58;7.82;;;1.80;;
46815;SDS011;32787;53.316;8.670;2022-10-16T09:43:40;7.60;;;1.77;;
46815;SDS011;32787;53.316;8.670;2022-10-16T09:46:28;6.90;;;1.90;;
46815;SDS011;32787;53.316;8.670;2022-10-16T09:48:59;4.07;;;1.10;;
46815;SDS011;32787;53.316;8.670;2022-10-16T09:51:33;7.20;;;1.48;;
46815;SDS011;32787;53.316;8.670;2022-10-16T09:56:34;8.18;;;1.70;;
46815;SDS011;32787;53.316;8.670;2022-10-16T09:59:22;5.88;;;1.33;;
46815;SDS011;32787;53.316;8.670;2022-10-16T10:01:53;11.57;;;2.03;;
46815;SDS011;32787;53.316;8.670;2022-10-16T10:04:20;6.45;;;1.58;;
46815;SDS011;32787;53.316;8.670;2022-10-16T10:06:49;7.50;;;1.70;;
46815;SDS011;32787;53.316;8.670;2022-10-16T10:09:29;5.90;;;1.38;;
46815;SDS011;32787;53.316;8.670;2022-10-16T10:12:04;9.60;;;1.42;;
46815;SDS011;32787;53.316;8.670;2022-10-16T10:14:37;6.68;;;1.52;;
46815;SDS011;32787;53.316;8.670;2022-10-16T10:19:41;6.22;;;1.27;;
46815;SDS011;32787;53.316;8.670;2022-10-16T10:25:24;6.78;;;1.40;;
46815;SDS011;32787;53.316;8.670;2022-10-16T10:30:57;5.85;;;1.45;;
46815;SDS011;32787;53.316;8.670;2022-10-16T10:39:23;6.28;;;1.40;;
46815;SDS011;32787;53.316;8.670;2022-10-16T10:50:21;5.35;;;1.33;;
46815;SDS011;32787;53.316;8.670;2022-10-16T10:55:37;7.60;;;1.50;;
46815;SDS011;32787;53.316;8.670;2022-10-16T11:01:12;6.13;;;1.48;;
46815;SDS011;32787;53.316;8.670;2022-10-16T11:06:36;6.95;;;1.17;;
46815;SDS011;32787;53.316;8.670;2022-10-16T11:09:21;6.00;;;1.50;;
46815;SDS011;32787;53.316;8.670;2022-10-16T11:12:22;5.53;;;1.00;;
46815;SDS011;32787;53.316;8.670;2022-10-16T11:15:00;4.75;;;0.93;;
46815;SDS011;32787;53.316;8.670;2022-10-16T11:17:39;6.88;;;1.23;;
46815;SDS011;32787;53.316;8.670;2022-10-16T11:20:19;3.33;;;0.85;;
46815;SDS011;32787;53.316;8.670;2022-10-16T11:23:02;4.35;;;1.15;;
46815;SDS011;32787;53.316;8.670;2022-10-16T11:25:36;5.97;;;1.23;;
46815;SDS011;32787;53.316;8.670;2022-10-16T11:36:38;6.50;;;1.10;;
46815;SDS011;32787;53.316;8.670;2022-10-16T11:47:24;8.20;;;1.60;;
46815;SDS011;32787;53.316;8.670;2022-10-16T11:50:11;7.45;;;1.50;;
46815;SDS011;32787;53.316;8.670;2022-10-16T11:52:40;5.75;;;1.30;;
46815;SDS011;32787;53.316;8.670;2022-10-16T11:55:17;6.32;;;1.27;;
46815;SDS011;32787;53.316;8.670;2022-10-16T12:08:37;6.00;;;1.00;;
46815;SDS011;32787;53.316;8.670;2022-10-16T12:11:08;7.53;;;1.30;;
46815;SDS011;32787;53.316;8.670;2022-10-16T12:13:45;7.53;;;1.20;;
46815;SDS011;32787;53.316;8.670;2022-10-16T12:18:42;7.50;;;1.20;;
46815;SDS011;32787;53.316;8.670;2022-10-16T12:21:10;9.27;;;1.38;;
46815;SDS011;32787;53.316;8.670;2022-10-16T12:23:47;10.23;;;1.90;;
46815;SDS011;32787;53.316;8.670;2022-10-16T12:26:37;6.43;;;1.15;;
46815;SDS011;32787;53.316;8.670;2022-10-16T12:31:57;11.38;;;1.52;;
46815;SDS011;32787;53.316;8.670;2022-10-16T12:34:26;8.38;;;1.30;;
46815;SDS011;32787;53.316;8.670;2022-10-16T12:37:09;8.85;;;1.52;;
46815;SDS011;32787;53.316;8.670;2022-10-16T12:39:46;4.55;;;0.98;;
46815;SDS011;32787;53.316;8.670;2022-10-16T12:42:20;6.97;;;1.30;;
46815;SDS011;32787;53.316;8.670;2022-10-16T12:44:46;9.93;;;1.60;;
46815;SDS011;32787;53.316;8.670;2022-10-16T12:49:56;7.20;;;1.30;;
46815;SDS011;32787;53.316;8.670;2022-10-16T12:52:25;7.85;;;1.10;;
46815;SDS011;32787;53.316;8.670;2022-10-16T12:54:56;6.70;;;1.00;;
46815;SDS011;32787;53.316;8.670;2022-10-16T13:00:17;6.03;;;0.95;;
46815;SDS011;32787;53.316;8.670;2022-10-16T13:11:03;6.22;;;1.20;;
46815;SDS011;32787;53.316;8.670;2022-10-16T13:16:26;6.40;;;1.20;;
46815;SDS011;32787;53.316;8.670;2022-10-16T13:21:51;7.53;;;1.23;;
46815;SDS011;32787;53.316;8.670;2022-10-16T13:29:38;5.22;;;1.20;;
46815;SDS011;32787;53.316;8.670;2022-10-16T13:32:09;7.22;;;1.30;;
46815;SDS011;32787;53.316;8.670;2022-10-16T13:34:45;6.38;;;1.58;;
46815;SDS011;32787;53.316;8.670;2022-10-16T13:37:24;8.63;;;1.48;;
46815;SDS011;32787;53.316;8.670;2022-10-16T13:39:50;5.32;;;0.98;;
46815;SDS011;32787;53.316;8.670;2022-10-16T13:42:23;5.88;;;1.13;;
46815;SDS011;32787;53.316;8.670;2022-10-16T13:44:52;9.30;;;1.20;;
46815;SDS011;32787;53.316;8.670;2022-10-16T13:47:20;12.70;;;1.48;;
46815;SDS011;32787;53.316;8.670;2022-10-16T13:52:40;6.60;;;1.20;;
46815;SDS011;32787;53.316;8.670;2022-10-16T13:55:13;5.95;;;1.27;;
46815;SDS011;32787;53.316;8.670;2022-10-16T13:57:41;9.23;;;1.40;;
46815;SDS011;32787;53.316;8.670;2022-10-16T14:00:17;10.32;;;1.40;;
46815;SDS011;32787;53.316;8.670;2022-10-16T14:02:44;7.47;;;1.35;;
46815;SDS011;32787;53.316;8.670;2022-10-16T14:05:15;7.32;;;1.27;;
46815;SDS011;32787;53.316;8.670;2022-10-16T14:07:41;8.35;;;1.73;;
46815;SDS011;32787;53.316;8.670;2022-10-16T14:10:18;8.02;;;1.17;;
46815;SDS011;32787;53.316;8.670;2022-10-16T14:12:54;7.97;;;1.38;;
46815;SDS011;32787;53.316;8.670;2022-10-16T14:15:21;7.85;;;1.35;;
46815;SDS011;32787;53.316;8.670;2022-10-16T14:17:48;11.18;;;1.45;;
46815;SDS011;32787;53.316;8.670;2022-10-16T14:20:25;8.63;;;1.63;;
46815;SDS011;32787;53.316;8.670;2022-10-16T14:23:53;6.90;;;1.30;;
46815;SDS011;32787;53.316;8.670;2022-10-16T14:28:19;6.25;;;1.38;;
46815;SDS011;32787;53.316;8.670;2022-10-16T14:30:51;6.55;;;1.27;;
46815;SDS011;32787;53.316;8.670;2022-10-16T14:36:01;11.95;;;1.70;;
46815;SDS011;32787;53.316;8.670;2022-10-16T14:38:29;8.98;;;1.63;;
46815;SDS011;32787;53.316;8.670;2022-10-16T14:40:57;5.80;;;1.23;;
46815;SDS011;32787;53.316;8.670;2022-10-16T14:46:03;6.75;;;1.73;;
46815;SDS011;32787;53.316;8.670;2022-10-16T14:48:40;7.50;;;1.10;;
46815;SDS011;32787;53.316;8.670;2022-10-16T14:51:14;9.80;;;1.40;;
46815;SDS011;32787;53.316;8.670;2022-10-16T14:53:41;7.10;;;1.83;;
46815;SDS011;32787;53.316;8.670;2022-10-16T14:56:07;6.70;;;1.40;;
46815;SDS011;32787;53.316;8.670;2022-10-16T14:58:34;8.75;;;1.33;;
46815;SDS011;32787;53.316;8.670;2022-10-16T15:01:00;7.97;;;1.52;;
46815;SDS011;32787;53.316;8.670;2022-10-16T15:03:26;8.50;;;1.48;;
46815;SDS011;32787;53.316;8.670;2022-10-16T15:05:51;5.30;;;1.17;;
46815;SDS011;32787;53.316;8.670;2022-10-16T15:08:17;8.90;;;1.65;;
46815;SDS011;32787;53.316;8.670;2022-10-16T15:10:43;10.00;;;1.67;;
46815;SDS011;32787;53.316;8.670;2022-10-16T15:13:12;8.85;;;1.73;;
46815;SDS011;32787;53.316;8.670;2022-10-16T15:18:11;6.68;;;1.75;;
46815;SDS011;32787;53.316;8.670;2022-10-16T15:20:39;8.00;;;1.30;;
46815;SDS011;32787;53.316;8.670;2022-10-16T15:23:08;10.43;;;3.15;;
46815;SDS011;32787;53.316;8.670;2022-10-16T15:28:19;7.25;;;1.40;;
46815;SDS011;32787;53.316;8.670;2022-10-16T15:30:46;9.45;;;1.55;;
46815;SDS011;32787;53.316;8.670;2022-10-16T15:33:16;8.73;;;2.00;;
46815;SDS011;32787;53.316;8.670;2022-10-16T15:35:45;6.90;;;1.35;;
46815;SDS011;32787;53.316;8.670;2022-10-16T15:38:12;9.25;;;1.67;;
46815;SDS011;32787;53.316;8.670;2022-10-16T15:40:39;6.07;;;1.40;;
46815;SDS011;32787;53.316;8.670;2022-10-16T15:43:05;9.60;;;1.63;;
46815;SDS011;32787;53.316;8.670;2022-10-16T15:45:31;8.00;;;1.50;;
46815;SDS011;32787;53.316;8.670;2022-10-16T15:47:56;9.57;;;1.77;;
46815;SDS011;32787;53.316;8.670;2022-10-16T15:50:22;14.88;;;2.10;;
46815;SDS011;32787;53.316;8.670;2022-10-16T15:52:48;9.40;;;1.90;;
46815;SDS011;32787;53.316;8.670;2022-10-16T15:55:15;10.50;;;2.90;;
46815;SDS011;32787;53.316;8.670;2022-10-16T15:57:42;10.63;;;2.30;;
46815;SDS011;32787;53.316;8.670;2022-10-16T16:00:12;8.32;;;2.13;;
46815;SDS011;32787;53.316;8.670;2022-10-16T16:02:43;9.48;;;2.65;;
46815;SDS011;32787;53.316;8.670;2022-10-16T16:05:14;10.68;;;3.20;;
46815;SDS011;32787;53.316;8.670;2022-10-16T16:07:40;15.90;;;6.15;;
46815;SDS011;32787;53.316;8.670;2022-10-16T16:10:06;13.70;;;5.38;;
46815;SDS011;32787;53.316;8.670;2022-10-16T16:12:33;12.88;;;5.40;;
46815;SDS011;32787;53.316;8.670;2022-10-16T16:14:59;16.02;;;4.85;;
46815;SDS011;32787;53.316;8.670;2022-10-16T16:17:25;11.73;;;4.20;;
46815;SDS011;32787;53.316;8.670;2022-10-16T16:19:50;13.85;;;3.80;;
46815;SDS011;32787;53.316;8.670;2022-10-16T16:22:16;11.02;;;3.30;;
46815;SDS011;32787;53.316;8.670;2022-10-16T16:24:42;12.93;;;3.65;;
46815;SDS011;32787;53.316;8.670;2022-10-16T16:27:08;18.02;;;3.88;;
46815;SDS011;32787;53.316;8.670;2022-10-16T16:29:34;11.13;;;3.78;;
46815;SDS011;32787;53.316;8.670;2022-10-16T16:32:00;11.52;;;4.55;;
46815;SDS011;32787;53.316;8.670;2022-10-16T16:34:26;17.85;;;7.65;;
46815;SDS011;32787;53.316;8.670;2022-10-16T16:36:53;18.83;;;5.55;;
46815;SDS011;32787;53.316;8.670;2022-10-16T16:39:19;17.25;;;6.30;;
46815;SDS011;32787;53.316;8.670;2022-10-16T16:41:45;16.02;;;7.80;;
46815;SDS011;32787;53.316;8.670;2022-10-16T16:44:11;15.75;;;7.72;;
46815;SDS011;32787;53.316;8.670;2022-10-16T16:46:37;18.13;;;8.15;;
46815;SDS011;32787;53.316;8.670;2022-10-16T16:49:05;12.93;;;6.15;;
46815;SDS011;32787;53.316;8.670;2022-10-16T16:51:31;15.05;;;5.13;;
46815;SDS011;32787;53.316;8.670;2022-10-16T16:53:58;14.50;;;5.38;;
46815;SDS011;32787;53.316;8.670;2022-10-16T16:56:24;9.82;;;3.72;;
46815;SDS011;32787;53.316;8.670;2022-10-16T16:58:51;16.63;;;5.05;;
46815;SDS011;32787;53.316;8.670;2022-10-16T17:01:19;10.68;;;3.20;;
46815;SDS011;32787;53.316;8.670;2022-10-16T17:03:46;10.95;;;3.10;;
46815;SDS011;32787;53.316;8.670;2022-10-16T17:06:14;12.43;;;3.15;;
46815;SDS011;32787;53.316;8.670;2022-10-16T17:08:40;13.20;;;3.20;;
46815;SDS011;32787;53.316;8.670;2022-10-16T17:11:11;15.80;;;2.38;;
46815;SDS011;32787;53.316;8.670;2022-10-16T17:13:38;9.75;;;2.78;;
46815;SDS011;32787;53.316;8.670;2022-10-16T17:16:05;9.35;;;2.30;;
46815;SDS011;32787;53.316;8.670;2022-10-16T17:18:31;14.70;;;3.28;;
46815;SDS011;32787;53.316;8.670;2022-10-16T17:21:05;9.55;;;2.47;;
46815;SDS011;32787;53.316;8.670;2022-10-16T17:23:32;13.15;;;2.63;;
46815;SDS011;32787;53.316;8.670;2022-10-16T17:26:03;10.63;;;2.25;;
46815;SDS011;32787;53.316;8.670;2022-10-16T17:28:33;10.35;;;2.42;;
46815;SDS011;32787;53.316;8.670;2022-10-16T17:31:12;9.20;;;2.55;;